CFR weather

Caen-Carpiquet Airport
Caen/Carpiquet, Lower Normandy, France

Public forecast

Using degrees Celsius for public forecast. Weather courtesy of forecast.io.

METAR (pilot weather report)

Retrieved 2019/06/24 17:30 UTC (3 minutes ago):

LFRK 241730Z AUTO 36004KT 330V030 9999 -RA SCT048/// SCT068/// BKN100/// ///TCU 17/15 Q1017 TEMPO VRB15G25KT 2000 TSRAGR BKN008 BKN060CB

TAF (pilot weather forecast)

Closest forecast is Le Havre Octeville Airport, 30.2 nm (55.9 km) NE. Retrieved 2019/06/24 12:21 UTC (5 hours ago):

TAF LFOH 241100Z 2412/2512 30010KT 9999 BKN100TCU BECMG 2412/2414 03005KT TEMPO 2412/2415 -SHRA BKN100CB PROB30 TEMPO 2421/2424 VRB15G25KT TSRAGR BKN080CB TEMPO 2507/2510 BKN003